TimeCST,TemperatureF,Dew PointF,Humidity,Sea Level PressureIn,VisibilityMPH,Wind Direction,Wind SpeedMPH,Gust SpeedMPH,PrecipitationIn,Events,Conditions,WindDirDegrees,DateUTC
12:15 AM,28.2,23.7,83,30.38,10.0,West,6.9,-,N/A,,Clear,260,2013-01-04 06:15:00
12:35 AM,29.5,25.2,84,30.37,10.0,WNW,6.9,-,N/A,,Clear,300,2013-01-04 06:35:00
12:55 AM,28.6,23.7,82,30.37,10.0,WNW,4.6,-,N/A,,Clear,290,2013-01-04 06:55:00
1:15 AM,25.5,21.2,84,30.37,10.0,West,4.6,-,N/A,,Clear,270,2013-01-04 07:15:00
1:35 AM,26.2,21.7,83,30.37,10.0,Calm,Calm,-,N/A,,Clear,0,2013-01-04 07:35:00
1:55 AM,27.7,23.7,85,30.37,10.0,West,3.5,-,N/A,,Clear,260,2013-01-04 07:55:00
2:15 AM,27.5,23.2,84,30.37,10.0,WSW,6.9,-,N/A,,Clear,250,2013-01-04 08:15:00
2:55 AM,26.4,22.1,84,30.38,10.0,West,6.9,-,N/A,,Clear,260,2013-01-04 08:55:00
5:35 AM,23.0,18.7,84,30.39,10.0,West,4.6,-,N/A,,Clear,260,2013-01-04 11:35:00
5:55 AM,23.4,18.9,83,30.39,10.0,WSW,5.8,-,N/A,,Scattered Clouds,250,2013-01-04 11:55:00
8:50 AM,30.2,23.0,75,30.42,10.0,WSW,10.4,-,N/A,,Clear,250,2013-01-04 14:50:00
10:45 AM,35.6,24.8,65,30.42,10.0,West,11.5,-,N/A,,Clear,270,2013-01-04 16:45:00
11:45 AM,37.4,23.0,56,30.39,10.0,West,13.8,-,N/A,,Clear,280,2013-01-04 17:45:00
12:45 PM,39.2,23.0,52,30.36,10.0,West,16.1,-,N/A,,Clear,280,2013-01-04 18:45:00
1:45 PM,41.0,23.0,49,30.35,10.0,SW,15.0,-,N/A,,Clear,230,2013-01-04 19:45:00
2:45 PM,41.0,21.2,45,30.35,10.0,WSW,13.8,-,N/A,,Clear,240,2013-01-04 20:45:00
3:50 PM,41.0,19.4,42,30.34,10.0,WSW,13.8,-,N/A,,Clear,250,2013-01-04 21:50:00
4:50 PM,37.4,21.2,52,30.33,10.0,WSW,8.1,-,N/A,,Clear,240,2013-01-04 22:50:00
5:50 PM,35.6,21.2,56,30.33,10.0,South,8.1,-,N/A,,Clear,190,2013-01-04 23:50:00
6:50 PM,33.8,19.4,56,30.34,10.0,SSW,8.1,-,N/A,,Clear,200,2013-01-05 00:50:00
7:50 PM,33.8,21.2,60,30.34,10.0,South,5.8,-,N/A,,Clear,190,2013-01-05 01:50:00
8:50 PM,33.8,21.2,60,30.33,10.0,South,6.9,-,N/A,,Clear,180,2013-01-05 02:50:00
9:15 PM,31.6,20.3,63,30.33,10.0,SSE,3.5,-,N/A,,Clear,160,2013-01-05 03:15:00
9:50 PM,30.2,21.2,69,30.33,10.0,South,6.9,-,N/A,,Clear,190,2013-01-05 03:50:00
9:55 PM,30.9,21.7,69,30.33,10.0,SSE,3.5,-,N/A,,Clear,160,2013-01-05 03:55:00
10:15 PM,29.7,22.1,73,30.33,10.0,SSE,4.6,-,N/A,,Clear,160,2013-01-05 04:15:00
10:35 PM,31.5,22.3,69,30.33,10.0,South,8.1,-,N/A,,Clear,180,2013-01-05 04:35:00
10:55 PM,32.0,22.8,69,30.33,10.0,South,8.1,-,N/A,,Clear,180,2013-01-05 04:55:00
11:15 PM,32.0,22.1,67,30.32,10.0,South,5.8,-,N/A,,Clear,170,2013-01-05 05:15:00
11:35 PM,31.8,21.9,67,30.31,10.0,South,6.9,-,N/A,,Clear,170,2013-01-05 05:35:00
11:55 PM,31.8,22.1,67,30.31,10.0,South,6.9,-,N/A,,Clear,170,2013-01-05 05:55:00